sensor_id;sensor_type;location;lat;lon;timestamp;P1;durP1;ratioP1;P2;durP2;ratioP2
61523;SDS011;47393;38.758;-9.164;2022-12-29T00:00:31;48.10;;;9.05;;
61523;SDS011;47393;38.758;-9.164;2022-12-29T00:02:31;44.88;;;8.10;;
61523;SDS011;47393;38.758;-9.164;2022-12-29T00:04:32;45.97;;;8.07;;
61523;SDS011;47393;38.758;-9.164;2022-12-29T00:06:33;55.00;;;7.95;;
61523;SDS011;47393;38.758;-9.164;2022-12-29T00:08:34;38.38;;;6.95;;
61523;SDS011;47393;38.758;-9.164;2022-12-29T00:10:40;42.40;;;8.02;;
61523;SDS011;47393;38.758;-9.164;2022-12-29T00:12:41;48.17;;;8.10;;
61523;SDS011;47393;38.758;-9.164;2022-12-29T00:15:00;43.33;;;7.72;;
61523;SDS011;47393;38.758;-9.164;2022-12-29T00:17:19;56.55;;;8.70;;
61523;SDS011;47393;38.758;-9.164;2022-12-29T00:19:20;43.92;;;7.95;;
61523;SDS011;47393;38.758;-9.164;2022-12-29T00:21:40;47.63;;;8.38;;
61523;SDS011;47393;38.758;-9.164;2022-12-29T00:23:59;48.97;;;7.25;;
61523;SDS011;47393;38.758;-9.164;2022-12-29T00:26:12;58.13;;;8.80;;
61523;SDS011;47393;38.758;-9.164;2022-12-29T00:28:32;50.92;;;8.55;;
61523;SDS011;47393;38.758;-9.164;2022-12-29T00:30:51;44.28;;;7.95;;
61523;SDS011;47393;38.758;-9.164;2022-12-29T00:33:13;50.85;;;8.55;;
61523;SDS011;47393;38.758;-9.164;2022-12-29T00:35:34;44.80;;;7.40;;
61523;SDS011;47393;38.758;-9.164;2022-12-29T00:37:41;59.15;;;8.55;;
61523;SDS011;47393;38.758;-9.164;2022-12-29T00:40:02;63.53;;;8.35;;
61523;SDS011;47393;38.758;-9.164;2022-12-29T00:42:21;51.67;;;8.02;;
61523;SDS011;47393;38.758;-9.164;2022-12-29T00:44:40;45.50;;;7.60;;
61523;SDS011;47393;38.758;-9.164;2022-12-29T00:46:41;56.20;;;7.90;;
61523;SDS011;47393;38.758;-9.164;2022-12-29T00:48:42;52.13;;;8.95;;
61523;SDS011;47393;38.758;-9.164;2022-12-29T00:51:01;44.92;;;7.10;;
61523;SDS011;47393;38.758;-9.164;2022-12-29T00:53:02;45.33;;;7.50;;
61523;SDS011;47393;38.758;-9.164;2022-12-29T00:55:03;48.90;;;7.72;;
61523;SDS011;47393;38.758;-9.164;2022-12-29T00:57:04;41.28;;;6.90;;
61523;SDS011;47393;38.758;-9.164;2022-12-29T00:59:06;55.70;;;8.45;;
61523;SDS011;47393;38.758;-9.164;2022-12-29T01:01:08;44.90;;;8.43;;
61523;SDS011;47393;38.758;-9.164;2022-12-29T01:03:09;41.67;;;6.13;;
61523;SDS011;47393;38.758;-9.164;2022-12-29T01:05:09;41.55;;;7.05;;
61523;SDS011;47393;38.758;-9.164;2022-12-29T01:07:11;28.10;;;5.50;;
61523;SDS011;47393;38.758;-9.164;2022-12-29T01:09:11;41.60;;;6.63;;
61523;SDS011;47393;38.758;-9.164;2022-12-29T01:11:30;38.78;;;6.15;;
61523;SDS011;47393;38.758;-9.164;2022-12-29T01:13:31;45.45;;;7.30;;
61523;SDS011;47393;38.758;-9.164;2022-12-29T01:15:32;39.22;;;6.95;;
61523;SDS011;47393;38.758;-9.164;2022-12-29T01:17:32;43.47;;;7.55;;
61523;SDS011;47393;38.758;-9.164;2022-12-29T01:19:33;45.15;;;7.13;;
61523;SDS011;47393;38.758;-9.164;2022-12-29T01:21:34;41.95;;;7.38;;
61523;SDS011;47393;38.758;-9.164;2022-12-29T01:23:35;54.92;;;7.88;;
61523;SDS011;47393;38.758;-9.164;2022-12-29T01:25:36;41.03;;;6.22;;
61523;SDS011;47393;38.758;-9.164;2022-12-29T01:27:36;43.38;;;6.82;;
61523;SDS011;47393;38.758;-9.164;2022-12-29T01:29:37;37.85;;;6.43;;
61523;SDS011;47393;38.758;-9.164;2022-12-29T01:31:39;33.45;;;5.93;;
61523;SDS011;47393;38.758;-9.164;2022-12-29T01:33:39;45.55;;;6.22;;
61523;SDS011;47393;38.758;-9.164;2022-12-29T01:35:40;38.33;;;6.25;;
61523;SDS011;47393;38.758;-9.164;2022-12-29T01:37:41;35.38;;;7.32;;
61523;SDS011;47393;38.758;-9.164;2022-12-29T01:39:42;38.22;;;6.25;;
61523;SDS011;47393;38.758;-9.164;2022-12-29T01:41:42;43.60;;;7.18;;
61523;SDS011;47393;38.758;-9.164;2022-12-29T01:45:50;37.80;;;5.93;;
61523;SDS011;47393;38.758;-9.164;2022-12-29T01:47:53;41.63;;;6.43;;
61523;SDS011;47393;38.758;-9.164;2022-12-29T01:49:56;44.13;;;6.13;;
61523;SDS011;47393;38.758;-9.164;2022-12-29T01:51:58;25.10;;;5.57;;
61523;SDS011;47393;38.758;-9.164;2022-12-29T01:54:01;42.25;;;6.72;;
61523;SDS011;47393;38.758;-9.164;2022-12-29T01:56:04;38.13;;;6.57;;
61523;SDS011;47393;38.758;-9.164;2022-12-29T01:58:06;40.13;;;5.80;;
61523;SDS011;47393;38.758;-9.164;2022-12-29T02:00:09;46.70;;;6.50;;
61523;SDS011;47393;38.758;-9.164;2022-12-29T02:02:13;38.05;;;7.38;;
61523;SDS011;47393;38.758;-9.164;2022-12-29T02:04:16;39.53;;;7.70;;
61523;SDS011;47393;38.758;-9.164;2022-12-29T02:06:20;42.67;;;8.70;;
61523;SDS011;47393;38.758;-9.164;2022-12-29T02:08:22;48.90;;;8.65;;
61523;SDS011;47393;38.758;-9.164;2022-12-29T02:10:24;50.88;;;10.15;;
61523;SDS011;47393;38.758;-9.164;2022-12-29T02:12:26;47.00;;;9.23;;
61523;SDS011;47393;38.758;-9.164;2022-12-29T02:14:26;39.78;;;9.20;;
61523;SDS011;47393;38.758;-9.164;2022-12-29T02:16:53;36.90;;;7.47;;
61523;SDS011;47393;38.758;-9.164;2022-12-29T02:29:41;37.13;;;6.22;;
61523;SDS011;47393;38.758;-9.164;2022-12-29T02:41:06;44.05;;;8.48;;
61523;SDS011;47393;38.758;-9.164;2022-12-29T02:43:19;44.78;;;7.90;;
61523;SDS011;47393;38.758;-9.164;2022-12-29T02:47:33;42.85;;;6.18;;
61523;SDS011;47393;38.758;-9.164;2022-12-29T02:49:43;31.95;;;7.00;;
61523;SDS011;47393;38.758;-9.164;2022-12-29T02:53:46;24.25;;;5.05;;
61523;SDS011;47393;38.758;-9.164;2022-12-29T02:56:06;22.58;;;4.65;;
61523;SDS011;47393;38.758;-9.164;2022-12-29T02:58:15;18.00;;;4.32;;
61523;SDS011;47393;38.758;-9.164;2022-12-29T03:00:16;19.33;;;3.75;;
61523;SDS011;47393;38.758;-9.164;2022-12-29T03:04:22;22.08;;;6.70;;
61523;SDS011;47393;38.758;-9.164;2022-12-29T03:06:30;17.67;;;7.07;;
61523;SDS011;47393;38.758;-9.164;2022-12-29T03:09:20;21.25;;;8.32;;
61523;SDS011;47393;38.758;-9.164;2022-12-29T03:11:00;26.55;;;9.90;;
61523;SDS011;47393;38.758;-9.164;2022-12-29T03:13:12;25.83;;;12.00;;
61523;SDS011;47393;38.758;-9.164;2022-12-29T03:15:55;34.30;;;15.00;;
61523;SDS011;47393;38.758;-9.164;2022-12-29T03:18:10;43.47;;;23.67;;
61523;SDS011;47393;38.758;-9.164;2022-12-29T03:20:18;38.10;;;23.15;;
61523;SDS011;47393;38.758;-9.164;2022-12-29T03:22:22;47.92;;;26.30;;
61523;SDS011;47393;38.758;-9.164;2022-12-29T03:24:49;52.92;;;25.02;;
61523;SDS011;47393;38.758;-9.164;2022-12-29T03:26:53;48.60;;;26.98;;
61523;SDS011;47393;38.758;-9.164;2022-12-29T03:28:54;42.55;;;23.48;;
61523;SDS011;47393;38.758;-9.164;2022-12-29T03:31:06;37.50;;;24.33;;
61523;SDS011;47393;38.758;-9.164;2022-12-29T03:33:09;37.38;;;22.67;;
61523;SDS011;47393;38.758;-9.164;2022-12-29T03:35:13;39.63;;;21.02;;
61523;SDS011;47393;38.758;-9.164;2022-12-29T03:37:20;41.45;;;20.08;;
61523;SDS011;47393;38.758;-9.164;2022-12-29T03:39:22;35.28;;;19.35;;
61523;SDS011;47393;38.758;-9.164;2022-12-29T03:41:26;36.40;;;18.20;;
61523;SDS011;47393;38.758;-9.164;2022-12-29T03:43:28;31.33;;;16.75;;
61523;SDS011;47393;38.758;-9.164;2022-12-29T03:45:29;28.63;;;13.27;;
61523;SDS011;47393;38.758;-9.164;2022-12-29T03:47:31;29.42;;;12.55;;
61523;SDS011;47393;38.758;-9.164;2022-12-29T03:49:32;23.00;;;10.52;;
61523;SDS011;47393;38.758;-9.164;2022-12-29T03:51:33;22.55;;;8.48;;
61523;SDS011;47393;38.758;-9.164;2022-12-29T03:53:34;23.60;;;8.13;;
61523;SDS011;47393;38.758;-9.164;2022-12-29T03:55:36;27.02;;;7.50;;
61523;SDS011;47393;38.758;-9.164;2022-12-29T03:57:37;28.10;;;8.02;;
61523;SDS011;47393;38.758;-9.164;2022-12-29T03:59:41;35.07;;;8.70;;
61523;SDS011;47393;38.758;-9.164;2022-12-29T04:01:41;39.72;;;9.93;;
61523;SDS011;47393;38.758;-9.164;2022-12-29T04:03:42;27.20;;;9.43;;
61523;SDS011;47393;38.758;-9.164;2022-12-29T04:05:45;34.20;;;13.60;;
61523;SDS011;47393;38.758;-9.164;2022-12-29T04:07:46;31.20;;;14.90;;
61523;SDS011;47393;38.758;-9.164;2022-12-29T04:09:47;39.83;;;17.45;;
61523;SDS011;47393;38.758;-9.164;2022-12-29T04:11:54;45.72;;;20.73;;
61523;SDS011;47393;38.758;-9.164;2022-12-29T04:13:55;42.58;;;21.15;;
61523;SDS011;47393;38.758;-9.164;2022-12-29T04:15:59;49.15;;;22.60;;
61523;SDS011;47393;38.758;-9.164;2022-12-29T04:18:01;48.13;;;24.52;;
61523;SDS011;47393;38.758;-9.164;2022-12-29T04:20:03;53.35;;;25.17;;
61523;SDS011;47393;38.758;-9.164;2022-12-29T04:22:25;45.38;;;24.67;;
61523;SDS011;47393;38.758;-9.164;2022-12-29T04:24:25;47.47;;;25.48;;
61523;SDS011;47393;38.758;-9.164;2022-12-29T04:26:27;56.72;;;28.40;;
61523;SDS011;47393;38.758;-9.164;2022-12-29T04:28:38;43.70;;;25.95;;
61523;SDS011;47393;38.758;-9.164;2022-12-29T04:30:59;44.15;;;24.15;;
61523;SDS011;47393;38.758;-9.164;2022-12-29T04:33:04;48.35;;;24.80;;
61523;SDS011;47393;38.758;-9.164;2022-12-29T04:35:05;48.63;;;23.73;;
61523;SDS011;47393;38.758;-9.164;2022-12-29T04:37:06;46.05;;;21.95;;
61523;SDS011;47393;38.758;-9.164;2022-12-29T04:39:07;36.17;;;16.33;;
61523;SDS011;47393;38.758;-9.164;2022-12-29T04:41:09;36.63;;;13.82;;
61523;SDS011;47393;38.758;-9.164;2022-12-29T04:43:13;41.75;;;12.25;;
61523;SDS011;47393;38.758;-9.164;2022-12-29T04:45:33;35.83;;;10.80;;
61523;SDS011;47393;38.758;-9.164;2022-12-29T04:47:43;30.92;;;7.78;;
61523;SDS011;47393;38.758;-9.164;2022-12-29T04:50:10;29.30;;;5.70;;
61523;SDS011;47393;38.758;-9.164;2022-12-29T04:52:25;34.97;;;7.95;;
61523;SDS011;47393;38.758;-9.164;2022-12-29T04:54:26;28.73;;;6.00;;
61523;SDS011;47393;38.758;-9.164;2022-12-29T04:56:53;27.63;;;7.50;;
61523;SDS011;47393;38.758;-9.164;2022-12-29T04:58:53;22.85;;;6.75;;
61523;SDS011;47393;38.758;-9.164;2022-12-29T05:00:55;32.75;;;6.97;;
61523;SDS011;47393;38.758;-9.164;2022-12-29T05:02:58;31.42;;;9.60;;
61523;SDS011;47393;38.758;-9.164;2022-12-29T05:04:59;37.78;;;9.57;;
61523;SDS011;47393;38.758;-9.164;2022-12-29T05:07:05;40.63;;;14.75;;
61523;SDS011;47393;38.758;-9.164;2022-12-29T05:09:06;62.35;;;18.40;;
61523;SDS011;47393;38.758;-9.164;2022-12-29T05:11:08;44.22;;;20.38;;
61523;SDS011;47393;38.758;-9.164;2022-12-29T05:13:09;43.67;;;18.33;;
61523;SDS011;47393;38.758;-9.164;2022-12-29T05:15:10;42.47;;;16.20;;
61523;SDS011;47393;38.758;-9.164;2022-12-29T05:17:12;47.60;;;16.00;;
61523;SDS011;47393;38.758;-9.164;2022-12-29T05:19:12;41.65;;;15.77;;
61523;SDS011;47393;38.758;-9.164;2022-12-29T05:21:16;29.60;;;13.15;;
61523;SDS011;47393;38.758;-9.164;2022-12-29T05:23:18;48.80;;;15.30;;
61523;SDS011;47393;38.758;-9.164;2022-12-29T05:25:24;33.75;;;11.90;;
61523;SDS011;47393;38.758;-9.164;2022-12-29T05:27:37;25.17;;;9.20;;
61523;SDS011;47393;38.758;-9.164;2022-12-29T05:29:52;23.92;;;5.57;;
61523;SDS011;47393;38.758;-9.164;2022-12-29T05:31:52;27.90;;;5.97;;
61523;SDS011;47393;38.758;-9.164;2022-12-29T05:33:54;23.77;;;5.25;;
61523;SDS011;47393;38.758;-9.164;2022-12-29T05:35:55;26.17;;;4.65;;
61523;SDS011;47393;38.758;-9.164;2022-12-29T05:37:57;25.83;;;4.20;;
61523;SDS011;47393;38.758;-9.164;2022-12-29T05:39:58;22.52;;;4.18;;
61523;SDS011;47393;38.758;-9.164;2022-12-29T05:41:59;20.40;;;4.47;;
61523;SDS011;47393;38.758;-9.164;2022-12-29T05:44:22;23.17;;;4.70;;
61523;SDS011;47393;38.758;-9.164;2022-12-29T05:46:49;27.45;;;4.75;;
61523;SDS011;47393;38.758;-9.164;2022-12-29T05:49:18;31.80;;;4.70;;
61523;SDS011;47393;38.758;-9.164;2022-12-29T05:51:57;31.67;;;4.72;;
61523;SDS011;47393;38.758;-9.164;2022-12-29T05:53:58;33.53;;;5.72;;
61523;SDS011;47393;38.758;-9.164;2022-12-29T05:55:59;22.63;;;4.97;;
61523;SDS011;47393;38.758;-9.164;2022-12-29T05:57:59;29.02;;;4.95;;
61523;SDS011;47393;38.758;-9.164;2022-12-29T06:00:03;26.48;;;4.25;;
61523;SDS011;47393;38.758;-9.164;2022-12-29T06:02:03;30.30;;;4.60;;
61523;SDS011;47393;38.758;-9.164;2022-12-29T06:04:05;27.65;;;5.18;;
61523;SDS011;47393;38.758;-9.164;2022-12-29T06:06:06;31.30;;;4.50;;
61523;SDS011;47393;38.758;-9.164;2022-12-29T06:08:10;24.20;;;4.30;;
61523;SDS011;47393;38.758;-9.164;2022-12-29T06:10:11;23.73;;;3.88;;
61523;SDS011;47393;38.758;-9.164;2022-12-29T06:12:27;24.42;;;4.40;;
61523;SDS011;47393;38.758;-9.164;2022-12-29T06:14:28;18.98;;;4.38;;
61523;SDS011;47393;38.758;-9.164;2022-12-29T06:16:29;24.15;;;4.15;;
61523;SDS011;47393;38.758;-9.164;2022-12-29T06:18:33;32.00;;;4.47;;
61523;SDS011;47393;38.758;-9.164;2022-12-29T06:20:34;25.80;;;4.50;;
61523;SDS011;47393;38.758;-9.164;2022-12-29T06:22:37;22.77;;;4.30;;
61523;SDS011;47393;38.758;-9.164;2022-12-29T06:24:38;22.80;;;4.22;;
61523;SDS011;47393;38.758;-9.164;2022-12-29T06:26:39;36.97;;;4.65;;
61523;SDS011;47393;38.758;-9.164;2022-12-29T06:28:40;27.05;;;4.18;;
61523;SDS011;47393;38.758;-9.164;2022-12-29T06:30:43;24.15;;;4.40;;
61523;SDS011;47393;38.758;-9.164;2022-12-29T06:32:44;24.75;;;4.70;;
61523;SDS011;47393;38.758;-9.164;2022-12-29T06:34:47;26.23;;;4.30;;
61523;SDS011;47393;38.758;-9.164;2022-12-29T06:36:48;30.35;;;3.85;;
61523;SDS011;47393;38.758;-9.164;2022-12-29T06:38:49;27.85;;;5.38;;
61523;SDS011;47393;38.758;-9.164;2022-12-29T06:40:52;40.25;;;5.85;;
61523;SDS011;47393;38.758;-9.164;2022-12-29T06:42:56;32.08;;;5.10;;
61523;SDS011;47393;38.758;-9.164;2022-12-29T06:45:31;22.40;;;4.28;;
61523;SDS011;47393;38.758;-9.164;2022-12-29T06:47:32;31.58;;;4.63;;
61523;SDS011;47393;38.758;-9.164;2022-12-29T06:49:33;26.75;;;5.25;;
61523;SDS011;47393;38.758;-9.164;2022-12-29T06:51:34;37.13;;;5.28;;
61523;SDS011;47393;38.758;-9.164;2022-12-29T06:53:34;32.25;;;4.80;;
61523;SDS011;47393;38.758;-9.164;2022-12-29T06:55:35;31.88;;;4.72;;
61523;SDS011;47393;38.758;-9.164;2022-12-29T06:57:36;35.10;;;5.38;;
61523;SDS011;47393;38.758;-9.164;2022-12-29T06:59:36;35.05;;;5.70;;
61523;SDS011;47393;38.758;-9.164;2022-12-29T07:01:37;40.92;;;7.55;;
61523;SDS011;47393;38.758;-9.164;2022-12-29T07:03:38;45.25;;;6.38;;
61523;SDS011;47393;38.758;-9.164;2022-12-29T07:05:38;39.05;;;6.78;;
61523;SDS011;47393;38.758;-9.164;2022-12-29T07:07:39;33.83;;;6.28;;
61523;SDS011;47393;38.758;-9.164;2022-12-29T07:09:40;30.80;;;6.45;;
61523;SDS011;47393;38.758;-9.164;2022-12-29T07:11:41;44.28;;;6.40;;
61523;SDS011;47393;38.758;-9.164;2022-12-29T07:13:42;32.13;;;6.43;;
61523;SDS011;47393;38.758;-9.164;2022-12-29T07:15:43;35.92;;;6.78;;
61523;SDS011;47393;38.758;-9.164;2022-12-29T07:17:43;46.95;;;8.15;;
61523;SDS011;47393;38.758;-9.164;2022-12-29T07:19:47;39.35;;;6.97;;
61523;SDS011;47393;38.758;-9.164;2022-12-29T07:21:47;48.30;;;8.10;;
61523;SDS011;47393;38.758;-9.164;2022-12-29T07:23:48;30.27;;;7.18;;
61523;SDS011;47393;38.758;-9.164;2022-12-29T07:25:49;43.00;;;8.63;;
61523;SDS011;47393;38.758;-9.164;2022-12-29T07:27:49;44.30;;;9.95;;
61523;SDS011;47393;38.758;-9.164;2022-12-29T07:29:50;38.00;;;10.70;;
61523;SDS011;47393;38.758;-9.164;2022-12-29T07:31:53;54.20;;;12.65;;
61523;SDS011;47393;38.758;-9.164;2022-12-29T07:33:54;57.65;;;13.55;;
61523;SDS011;47393;38.758;-9.164;2022-12-29T07:35:58;39.55;;;14.00;;
61523;SDS011;47393;38.758;-9.164;2022-12-29T07:38:02;48.33;;;14.57;;
61523;SDS011;47393;38.758;-9.164;2022-12-29T07:40:02;54.00;;;16.10;;
61523;SDS011;47393;38.758;-9.164;2022-12-29T07:42:06;56.63;;;16.27;;
61523;SDS011;47393;38.758;-9.164;2022-12-29T07:44:18;57.05;;;17.02;;
61523;SDS011;47393;38.758;-9.164;2022-12-29T07:46:46;42.78;;;18.02;;
61523;SDS011;47393;38.758;-9.164;2022-12-29T07:48:46;53.78;;;19.05;;
61523;SDS011;47393;38.758;-9.164;2022-12-29T07:50:47;63.22;;;21.42;;
61523;SDS011;47393;38.758;-9.164;2022-12-29T07:52:48;68.78;;;22.13;;
61523;SDS011;47393;38.758;-9.164;2022-12-29T07:54:48;49.75;;;22.08;;
61523;SDS011;47393;38.758;-9.164;2022-12-29T07:56:49;68.95;;;23.27;;
61523;SDS011;47393;38.758;-9.164;2022-12-29T07:58:50;69.70;;;23.70;;
61523;SDS011;47393;38.758;-9.164;2022-12-29T08:00:54;54.45;;;22.83;;
61523;SDS011;47393;38.758;-9.164;2022-12-29T08:02:55;64.28;;;21.85;;
61523;SDS011;47393;38.758;-9.164;2022-12-29T08:04:56;66.07;;;19.70;;
61523;SDS011;47393;38.758;-9.164;2022-12-29T08:06:56;70.03;;;17.50;;
61523;SDS011;47393;38.758;-9.164;2022-12-29T08:08:57;55.85;;;18.85;;
61523;SDS011;47393;38.758;-9.164;2022-12-29T08:10:58;56.72;;;16.58;;
61523;SDS011;47393;38.758;-9.164;2022-12-29T08:12:59;45.95;;;16.05;;
61523;SDS011;47393;38.758;-9.164;2022-12-29T08:14:59;44.20;;;12.75;;
61523;SDS011;47393;38.758;-9.164;2022-12-29T08:17:00;54.85;;;13.20;;
61523;SDS011;47393;38.758;-9.164;2022-12-29T08:19:01;56.42;;;11.57;;
61523;SDS011;47393;38.758;-9.164;2022-12-29T08:21:02;49.08;;;10.00;;
61523;SDS011;47393;38.758;-9.164;2022-12-29T08:23:06;36.58;;;9.13;;
61523;SDS011;47393;38.758;-9.164;2022-12-29T08:25:06;50.03;;;9.95;;
61523;SDS011;47393;38.758;-9.164;2022-12-29T08:27:07;48.65;;;9.20;;
61523;SDS011;47393;38.758;-9.164;2022-12-29T08:29:08;35.20;;;8.80;;
61523;SDS011;47393;38.758;-9.164;2022-12-29T08:31:08;55.28;;;8.93;;
61523;SDS011;47393;38.758;-9.164;2022-12-29T08:33:09;48.13;;;8.98;;
61523;SDS011;47393;38.758;-9.164;2022-12-29T08:35:10;40.58;;;7.43;;
61523;SDS011;47393;38.758;-9.164;2022-12-29T08:37:11;51.45;;;9.98;;
61523;SDS011;47393;38.758;-9.164;2022-12-29T08:39:12;53.00;;;7.53;;
61523;SDS011;47393;38.758;-9.164;2022-12-29T08:41:12;39.65;;;7.22;;
61523;SDS011;47393;38.758;-9.164;2022-12-29T08:43:13;49.00;;;7.40;;
61523;SDS011;47393;38.758;-9.164;2022-12-29T08:45:13;41.03;;;6.88;;
61523;SDS011;47393;38.758;-9.164;2022-12-29T08:47:14;45.90;;;7.53;;
61523;SDS011;47393;38.758;-9.164;2022-12-29T08:49:15;46.90;;;8.10;;
61523;SDS011;47393;38.758;-9.164;2022-12-29T08:51:16;46.22;;;8.30;;
61523;SDS011;47393;38.758;-9.164;2022-12-29T08:53:20;45.90;;;7.15;;
61523;SDS011;47393;38.758;-9.164;2022-12-29T08:55:21;35.80;;;5.32;;
61523;SDS011;47393;38.758;-9.164;2022-12-29T08:57:21;33.90;;;6.15;;
61523;SDS011;47393;38.758;-9.164;2022-12-29T08:59:36;44.70;;;5.40;;
61523;SDS011;47393;38.758;-9.164;2022-12-29T09:01:37;46.38;;;7.90;;
61523;SDS011;47393;38.758;-9.164;2022-12-29T09:03:40;59.40;;;8.18;;
61523;SDS011;47393;38.758;-9.164;2022-12-29T09:05:41;44.80;;;5.82;;
61523;SDS011;47393;38.758;-9.164;2022-12-29T09:07:42;32.60;;;7.32;;
61523;SDS011;47393;38.758;-9.164;2022-12-29T09:09:42;46.38;;;7.32;;
61523;SDS011;47393;38.758;-9.164;2022-12-29T09:11:43;29.88;;;6.68;;
61523;SDS011;47393;38.758;-9.164;2022-12-29T09:13:44;52.72;;;6.93;;
61523;SDS011;47393;38.758;-9.164;2022-12-29T09:15:48;28.95;;;4.22;;
61523;SDS011;47393;38.758;-9.164;2022-12-29T09:17:51;19.88;;;3.55;;
61523;SDS011;47393;38.758;-9.164;2022-12-29T09:19:54;26.67;;;4.70;;
61523;SDS011;47393;38.758;-9.164;2022-12-29T09:21:55;28.08;;;3.28;;
61523;SDS011;47393;38.758;-9.164;2022-12-29T09:23:59;22.15;;;3.33;;
61523;SDS011;47393;38.758;-9.164;2022-12-29T09:26:00;31.85;;;4.30;;
61523;SDS011;47393;38.758;-9.164;2022-12-29T09:28:01;24.13;;;3.63;;
61523;SDS011;47393;38.758;-9.164;2022-12-29T09:30:07;26.33;;;4.97;;
61523;SDS011;47393;38.758;-9.164;2022-12-29T09:32:11;19.85;;;4.57;;
61523;SDS011;47393;38.758;-9.164;2022-12-29T09:34:12;36.15;;;5.07;;
61523;SDS011;47393;38.758;-9.164;2022-12-29T09:36:15;39.30;;;4.50;;
61523;SDS011;47393;38.758;-9.164;2022-12-29T09:38:16;32.60;;;5.63;;
61523;SDS011;47393;38.758;-9.164;2022-12-29T09:40:23;39.15;;;6.03;;
61523;SDS011;47393;38.758;-9.164;2022-12-29T09:42:32;34.88;;;5.38;;
61523;SDS011;47393;38.758;-9.164;2022-12-29T09:46:37;33.15;;;5.03;;
61523;SDS011;47393;38.758;-9.164;2022-12-29T09:48:40;27.00;;;5.50;;
61523;SDS011;47393;38.758;-9.164;2022-12-29T09:50:41;29.75;;;5.13;;
61523;SDS011;47393;38.758;-9.164;2022-12-29T09:53:08;35.63;;;6.45;;
61523;SDS011;47393;38.758;-9.164;2022-12-29T09:55:15;32.67;;;5.68;;
61523;SDS011;47393;38.758;-9.164;2022-12-29T09:57:18;35.97;;;5.55;;
61523;SDS011;47393;38.758;-9.164;2022-12-29T09:59:21;34.30;;;5.50;;
61523;SDS011;47393;38.758;-9.164;2022-12-29T10:01:34;36.15;;;6.20;;
61523;SDS011;47393;38.758;-9.164;2022-12-29T10:03:47;34.95;;;5.57;;
61523;SDS011;47393;38.758;-9.164;2022-12-29T10:05:50;40.33;;;6.32;;
61523;SDS011;47393;38.758;-9.164;2022-12-29T10:07:55;33.05;;;5.57;;
61523;SDS011;47393;38.758;-9.164;2022-12-29T10:12:27;25.92;;;5.30;;
61523;SDS011;47393;38.758;-9.164;2022-12-29T10:14:45;34.47;;;6.05;;
61523;SDS011;47393;38.758;-9.164;2022-12-29T10:17:07;31.27;;;5.25;;
61523;SDS011;47393;38.758;-9.164;2022-12-29T10:19:19;36.17;;;5.90;;
61523;SDS011;47393;38.758;-9.164;2022-12-29T10:23:52;36.45;;;6.80;;
61523;SDS011;47393;38.758;-9.164;2022-12-29T10:25:54;46.65;;;8.02;;
61523;SDS011;47393;38.758;-9.164;2022-12-29T10:27:55;50.70;;;9.95;;
61523;SDS011;47393;38.758;-9.164;2022-12-29T10:29:58;48.33;;;7.05;;
61523;SDS011;47393;38.758;-9.164;2022-12-29T10:32:00;46.65;;;7.38;;
61523;SDS011;47393;38.758;-9.164;2022-12-29T10:34:03;37.97;;;7.43;;
61523;SDS011;47393;38.758;-9.164;2022-12-29T10:36:13;46.30;;;7.35;;
61523;SDS011;47393;38.758;-9.164;2022-12-29T10:38:52;58.80;;;9.77;;
61523;SDS011;47393;38.758;-9.164;2022-12-29T10:40:43;51.00;;;7.22;;
61523;SDS011;47393;38.758;-9.164;2022-12-29T10:42:46;37.00;;;6.70;;
61523;SDS011;47393;38.758;-9.164;2022-12-29T10:44:47;37.97;;;6.43;;
61523;SDS011;47393;38.758;-9.164;2022-12-29T10:46:54;36.88;;;4.63;;
61523;SDS011;47393;38.758;-9.164;2022-12-29T10:48:55;31.63;;;5.22;;
61523;SDS011;47393;38.758;-9.164;2022-12-29T10:50:56;23.83;;;4.28;;
61523;SDS011;47393;38.758;-9.164;2022-12-29T10:53:02;26.33;;;5.22;;
61523;SDS011;47393;38.758;-9.164;2022-12-29T10:55:17;26.40;;;5.22;;
61523;SDS011;47393;38.758;-9.164;2022-12-29T10:57:31;33.22;;;4.45;;
61523;SDS011;47393;38.758;-9.164;2022-12-29T10:59:33;46.25;;;4.85;;
61523;SDS011;47393;38.758;-9.164;2022-12-29T11:01:37;32.03;;;5.10;;
61523;SDS011;47393;38.758;-9.164;2022-12-29T11:08:08;32.55;;;4.90;;
61523;SDS011;47393;38.758;-9.164;2022-12-29T11:17:09;38.63;;;5.78;;
61523;SDS011;47393;38.758;-9.164;2022-12-29T11:19:23;38.25;;;5.70;;
61523;SDS011;47393;38.758;-9.164;2022-12-29T11:23:41;26.30;;;5.23;;
61523;SDS011;47393;38.758;-9.164;2022-12-29T11:25:42;30.92;;;5.03;;
61523;SDS011;47393;38.758;-9.164;2022-12-29T11:27:53;28.58;;;4.97;;
61523;SDS011;47393;38.758;-9.164;2022-12-29T11:29:55;38.17;;;5.25;;
61523;SDS011;47393;38.758;-9.164;2022-12-29T11:31:56;37.08;;;5.03;;
61523;SDS011;47393;38.758;-9.164;2022-12-29T11:33:59;31.53;;;5.13;;
61523;SDS011;47393;38.758;-9.164;2022-12-29T11:36:07;35.10;;;5.88;;
61523;SDS011;47393;38.758;-9.164;2022-12-29T11:38:25;29.48;;;4.80;;
61523;SDS011;47393;38.758;-9.164;2022-12-29T11:40:27;40.67;;;5.50;;
61523;SDS011;47393;38.758;-9.164;2022-12-29T11:44:58;37.40;;;5.60;;
61523;SDS011;47393;38.758;-9.164;2022-12-29T11:47:04;52.22;;;8.10;;
61523;SDS011;47393;38.758;-9.164;2022-12-29T11:49:05;40.70;;;7.45;;
61523;SDS011;47393;38.758;-9.164;2022-12-29T11:51:06;45.15;;;8.75;;
61523;SDS011;47393;38.758;-9.164;2022-12-29T11:55:20;55.05;;;8.63;;
61523;SDS011;47393;38.758;-9.164;2022-12-29T11:57:22;47.45;;;8.00;;
61523;SDS011;47393;38.758;-9.164;2022-12-29T12:01:34;34.55;;;7.10;;
61523;SDS011;47393;38.758;-9.164;2022-12-29T12:03:38;35.95;;;7.68;;
61523;SDS011;47393;38.758;-9.164;2022-12-29T12:07:45;51.53;;;8.45;;
61523;SDS011;47393;38.758;-9.164;2022-12-29T12:09:49;55.25;;;8.30;;
61523;SDS011;47393;38.758;-9.164;2022-12-29T12:11:52;46.30;;;7.13;;
61523;SDS011;47393;38.758;-9.164;2022-12-29T12:16:08;47.42;;;8.25;;
61523;SDS011;47393;38.758;-9.164;2022-12-29T12:18:11;62.90;;;7.88;;
61523;SDS011;47393;38.758;-9.164;2022-12-29T12:20:22;49.75;;;7.30;;
61523;SDS011;47393;38.758;-9.164;2022-12-29T12:22:33;44.72;;;7.88;;
61523;SDS011;47393;38.758;-9.164;2022-12-29T12:26:53;57.53;;;8.52;;
61523;SDS011;47393;38.758;-9.164;2022-12-29T12:28:59;49.28;;;8.35;;
61523;SDS011;47393;38.758;-9.164;2022-12-29T12:31:01;45.55;;;8.18;;
61523;SDS011;47393;38.758;-9.164;2022-12-29T12:33:05;62.40;;;7.72;;
61523;SDS011;47393;38.758;-9.164;2022-12-29T12:35:11;54.08;;;8.07;;
61523;SDS011;47393;38.758;-9.164;2022-12-29T12:42:38;47.95;;;7.60;;
61523;SDS011;47393;38.758;-9.164;2022-12-29T12:44:15;50.95;;;8.65;;
61523;SDS011;47393;38.758;-9.164;2022-12-29T12:50:35;48.35;;;8.48;;
61523;SDS011;47393;38.758;-9.164;2022-12-29T12:52:49;41.65;;;7.82;;
61523;SDS011;47393;38.758;-9.164;2022-12-29T12:59:13;54.38;;;8.63;;
61523;SDS011;47393;38.758;-9.164;2022-12-29T13:11:28;49.08;;;7.75;;
61523;SDS011;47393;38.758;-9.164;2022-12-29T13:17:32;49.22;;;8.20;;
61523;SDS011;47393;38.758;-9.164;2022-12-29T13:19:34;56.13;;;9.15;;
61523;SDS011;47393;38.758;-9.164;2022-12-29T13:21:42;58.97;;;7.90;;
61523;SDS011;47393;38.758;-9.164;2022-12-29T13:23:54;42.58;;;8.25;;
61523;SDS011;47393;38.758;-9.164;2022-12-29T13:28:03;44.70;;;8.55;;
61523;SDS011;47393;38.758;-9.164;2022-12-29T13:30:15;46.35;;;8.35;;
61523;SDS011;47393;38.758;-9.164;2022-12-29T13:34:42;44.15;;;8.20;;
61523;SDS011;47393;38.758;-9.164;2022-12-29T13:36:54;39.30;;;7.68;;
61523;SDS011;47393;38.758;-9.164;2022-12-29T13:41:56;44.35;;;8.07;;
61523;SDS011;47393;38.758;-9.164;2022-12-29T13:43:57;51.58;;;8.02;;
61523;SDS011;47393;38.758;-9.164;2022-12-29T13:46:01;40.40;;;7.95;;